createdAt,value
2018-08-06T00:00:08.784Z,24.30
2018-08-06T00:02:36.237Z,24.32
2018-08-06T00:05:02.890Z,24.33
2018-08-06T00:07:30.550Z,24.28
2018-08-06T00:09:57.176Z,24.26
2018-08-06T00:12:23.814Z,24.31
2018-08-06T00:14:50.449Z,24.30
2018-08-06T00:17:17.886Z,24.26
2018-08-06T00:19:44.529Z,24.24
2018-08-06T00:22:11.197Z,24.21
2018-08-06T00:24:37.833Z,24.22
2018-08-06T00:27:05.364Z,24.21
2018-08-06T00:29:33.022Z,24.27
2018-08-06T00:32:00.528Z,24.27
2018-08-06T00:34:28.004Z,24.26
2018-08-06T00:36:55.756Z,24.22
2018-08-06T00:39:22.405Z,24.26
2018-08-06T00:41:49.188Z,24.27
2018-08-06T00:44:16.664Z,24.26
2018-08-06T00:46:44.208Z,24.26
2018-08-06T00:49:11.778Z,24.23
2018-08-06T00:51:39.435Z,24.23
2018-08-06T00:54:07.056Z,24.27
2018-08-06T00:56:34.569Z,24.23
2018-08-06T00:59:02.621Z,24.27
2018-08-06T01:01:30.855Z,24.26
2018-08-06T01:03:58.340Z,24.28
2018-08-06T01:06:25.929Z,24.27
2018-08-06T01:08:53.516Z,24.26
2018-08-06T01:11:20.174Z,24.28
2018-08-06T01:13:46.834Z,24.24
2018-08-06T01:16:14.389Z,24.26
2018-08-06T01:18:41.036Z,24.25
2018-08-06T01:21:08.836Z,24.26
2018-08-06T01:23:35.486Z,24.26
2018-08-06T01:26:02.125Z,24.27
2018-08-06T01:28:28.764Z,24.25
2018-08-06T01:30:55.388Z,24.25
2018-08-06T01:33:22.068Z,24.24
2018-08-06T01:35:48.706Z,24.23
2018-08-06T01:38:15.372Z,24.21
2018-08-06T01:40:42.000Z,24.23
2018-08-06T01:43:09.441Z,24.23
2018-08-06T01:45:36.067Z,24.17
2018-08-06T01:48:02.722Z,24.18
2018-08-06T01:50:29.369Z,24.14
2018-08-06T01:52:56.022Z,24.16
2018-08-06T01:55:22.694Z,24.20
2018-08-06T01:57:49.340Z,24.16
2018-08-06T02:00:16.511Z,24.18
2018-08-06T02:02:43.156Z,24.22
2018-08-06T02:05:10.178Z,24.20
2018-08-06T02:07:37.112Z,24.18
2018-08-06T02:10:05.035Z,24.16
2018-08-06T02:12:32.072Z,24.13
2018-08-06T02:14:59.569Z,24.12
2018-08-06T02:17:26.886Z,24.13
2018-08-06T02:19:53.577Z,24.15
2018-08-06T02:22:20.233Z,24.15
2018-08-06T02:24:46.976Z,24.13
2018-08-06T02:27:13.699Z,24.15
2018-08-06T02:29:41.224Z,24.16
2018-08-06T02:32:08.879Z,24.12
2018-08-06T02:34:35.533Z,24.13
2018-08-06T02:37:02.261Z,24.12
2018-08-06T02:39:28.928Z,24.12
2018-08-06T02:41:55.598Z,24.12
2018-08-06T02:44:23.029Z,24.13
2018-08-06T02:46:49.683Z,24.13
2018-08-06T02:49:17.128Z,24.16
2018-08-06T02:51:43.773Z,24.13
2018-08-06T02:54:10.429Z,24.11
2018-08-06T02:56:37.073Z,24.13
2018-08-06T02:59:05.075Z,24.10
2018-08-06T03:01:31.712Z,24.11
2018-08-06T03:03:58.346Z,24.11
2018-08-06T03:06:24.981Z,24.11
2018-08-06T03:08:51.612Z,24.10
2018-08-06T03:11:18.256Z,24.12
2018-08-06T03:13:45.721Z,24.12
2018-08-06T03:16:13.353Z,24.08
2018-08-06T03:18:39.984Z,24.08
2018-08-06T03:21:06.648Z,24.05
2018-08-06T03:23:35.208Z,24.09
2018-08-06T03:26:01.864Z,24.03
2018-08-06T03:28:29.464Z,24.05
2018-08-06T03:30:56.481Z,24.03
2018-08-06T03:33:23.941Z,24.04
2018-08-06T03:35:51.655Z,24.06
2018-08-06T03:38:19.119Z,24.06
2018-08-06T03:40:46.754Z,24.03
2018-08-06T03:43:13.408Z,24.08
2018-08-06T03:45:40.912Z,24.07
2018-08-06T03:48:07.573Z,24.04
2018-08-06T03:50:35.180Z,24.06
2018-08-06T03:53:01.831Z,24.05
2018-08-06T03:55:28.504Z,24.07
2018-08-06T03:57:55.136Z,24.07
2018-08-06T04:00:21.792Z,24.04
2018-08-06T04:02:48.445Z,24.05
2018-08-06T04:05:16.048Z,24.09
2018-08-06T04:07:43.693Z,24.03
2018-08-06T04:10:12.446Z,24.04
2018-08-06T04:12:40.068Z,24.03
2018-08-06T04:15:07.411Z,23.98
2018-08-06T04:17:35.110Z,23.96
2018-08-06T04:20:01.755Z,24.01
2018-08-06T04:22:28.385Z,24.08
2018-08-06T04:24:55.033Z,24.16
2018-08-06T04:27:21.685Z,24.22
2018-08-06T04:29:48.337Z,24.30
2018-08-06T04:32:14.966Z,24.35
2018-08-06T04:34:41.612Z,24.36
2018-08-06T04:37:08.260Z,24.41
2018-08-06T04:39:35.553Z,24.44
2018-08-06T04:42:02.202Z,24.45
2018-08-06T04:44:28.856Z,24.47
2018-08-06T04:46:55.508Z,24.47
2018-08-06T04:49:22.152Z,24.46
2018-08-06T04:51:49.692Z,24.46
2018-08-06T04:54:16.332Z,24.47
2018-08-06T04:56:44.085Z,24.46
2018-08-06T04:59:10.731Z,24.44
2018-08-06T05:01:37.387Z,24.41
2018-08-06T05:04:05.356Z,24.49
2018-08-06T05:06:32.200Z,24.46
2018-08-06T05:09:01.193Z,24.46
2018-08-06T05:11:27.836Z,24.45
2018-08-06T05:13:54.797Z,24.46
2018-08-06T05:16:21.482Z,24.50
2018-08-06T05:18:50.142Z,24.54
2018-08-06T05:21:16.856Z,24.57
2018-08-06T05:23:49.864Z,24.53
2018-08-06T05:26:17.265Z,24.52
2018-08-06T05:28:43.896Z,24.56
2018-08-06T05:31:10.627Z,24.58
2018-08-06T05:33:37.236Z,24.50
2018-08-06T05:36:04.914Z,24.60
2018-08-06T05:38:31.875Z,24.57
2018-08-06T05:40:58.513Z,24.61
2018-08-06T05:43:25.152Z,24.58
2018-08-06T05:45:51.789Z,24.59
2018-08-06T05:48:18.457Z,24.64
2018-08-06T05:50:45.096Z,24.63
2018-08-06T05:53:11.728Z,24.61
2018-08-06T05:55:38.352Z,24.60
2018-08-06T05:58:05.424Z,24.63
2018-08-06T06:00:32.988Z,24.62
2018-08-06T06:03:01.538Z,24.66
2018-08-06T06:05:28.153Z,24.70
2018-08-06T06:07:55.672Z,24.71
2018-08-06T06:10:22.295Z,24.72
2018-08-06T06:12:49.708Z,24.70
2018-08-06T06:15:16.415Z,24.70
2018-08-06T06:17:44.288Z,24.73
2018-08-06T06:20:11.881Z,24.72
2018-08-06T06:22:38.602Z,24.71
2018-08-06T06:25:07.918Z,24.72
2018-08-06T06:27:35.049Z,24.69
2018-08-06T06:30:01.673Z,24.70
2018-08-06T06:32:28.300Z,24.70
2018-08-06T06:34:55.869Z,24.72
2018-08-06T06:37:23.401Z,24.74
2018-08-06T06:39:50.032Z,24.74
2018-08-06T06:42:17.467Z,24.72
2018-08-06T06:44:44.101Z,24.70
2018-08-06T06:47:10.764Z,24.71
2018-08-06T06:49:37.484Z,24.71
2018-08-06T06:52:05.513Z,24.71
2018-08-06T06:54:32.170Z,24.69
2018-08-06T06:56:58.788Z,24.69
2018-08-06T06:59:25.436Z,24.71
2018-08-06T07:01:52.085Z,24.70
2018-08-06T07:04:19.513Z,24.72
2018-08-06T07:06:46.140Z,24.70
2018-08-06T07:09:12.792Z,24.71
2018-08-06T07:11:39.412Z,24.71
2018-08-06T07:14:06.512Z,24.71
2018-08-06T07:16:33.120Z,24.71
2018-08-06T07:18:59.764Z,24.71
2018-08-06T07:21:27.029Z,24.71
2018-08-06T07:23:53.676Z,24.70
2018-08-06T07:26:20.300Z,24.70
2018-08-06T07:28:46.926Z,24.72
2018-08-06T07:31:13.585Z,24.72
2018-08-06T07:33:40.287Z,24.73
2018-08-06T07:36:06.893Z,24.73
2018-08-06T07:38:34.511Z,24.72
2018-08-06T07:41:02.005Z,24.74
2018-08-06T07:43:29.660Z,24.74
2018-08-06T07:45:57.320Z,24.72
2018-08-06T07:48:23.980Z,24.72
2018-08-06T07:50:50.647Z,24.74
2018-08-06T07:53:18.220Z,24.73
2018-08-06T07:55:44.858Z,24.70
2018-08-06T07:58:12.351Z,24.74
2018-08-06T08:00:39.800Z,24.71
2018-08-06T08:03:07.408Z,24.76
2018-08-06T08:05:36.404Z,24.75
2018-08-06T08:08:03.017Z,24.72
2018-08-06T08:10:31.815Z,24.74
2018-08-06T08:12:58.440Z,24.72
2018-08-06T08:15:26.180Z,24.74
2018-08-06T08:17:52.996Z,24.74
2018-08-06T08:20:20.761Z,24.73
2018-08-06T08:22:47.248Z,24.70
2018-08-06T08:25:16.964Z,24.76
2018-08-06T08:27:43.660Z,24.73
2018-08-06T08:30:11.804Z,24.72
2018-08-06T08:32:38.920Z,24.72
2018-08-06T08:35:05.612Z,24.72
2018-08-06T08:37:32.528Z,24.72
2018-08-06T08:39:59.165Z,24.72
2018-08-06T08:42:25.883Z,24.70
2018-08-06T08:44:53.405Z,24.71
2018-08-06T08:47:21.017Z,24.71
2018-08-06T08:49:47.669Z,24.71
2018-08-06T08:52:15.261Z,24.71
2018-08-06T08:54:41.889Z,24.72
2018-08-06T08:57:08.616Z,24.71
2018-08-06T08:59:35.240Z,24.71
2018-08-06T09:02:02.853Z,24.73
2018-08-06T09:04:31.680Z,24.72
2018-08-06T09:06:59.241Z,24.72
2018-08-06T09:09:25.901Z,24.73
2018-08-06T09:11:52.529Z,24.73
2018-08-06T09:14:20.117Z,24.72
2018-08-06T09:16:46.866Z,24.70
2018-08-06T09:19:13.512Z,24.69
2018-08-06T09:21:40.210Z,24.68
2018-08-06T09:24:06.884Z,24.69
2018-08-06T09:26:34.840Z,24.70
2018-08-06T09:29:03.092Z,24.70
2018-08-06T09:31:29.800Z,24.68
2018-08-06T09:33:56.437Z,24.68
2018-08-06T09:36:23.084Z,24.70
2018-08-06T09:38:49.709Z,24.68
2018-08-06T09:41:16.332Z,24.69
2018-08-06T09:43:42.964Z,24.68
2018-08-06T09:46:09.594Z,24.69
2018-08-06T09:48:37.170Z,24.69
2018-08-06T09:51:05.709Z,24.69
2018-08-06T09:53:32.341Z,24.66
2018-08-06T09:55:58.960Z,24.67
2018-08-06T09:58:25.588Z,24.69
2018-08-06T10:00:57.960Z,24.69
2018-08-06T10:03:25.197Z,24.66
2018-08-06T10:05:51.990Z,24.69
2018-08-06T10:08:19.260Z,24.69
2018-08-06T10:10:45.892Z,24.69
2018-08-06T10:13:12.508Z,24.67
2018-08-06T10:15:39.137Z,24.69
2018-08-06T10:18:06.724Z,24.67
2018-08-06T10:20:34.286Z,24.67
2018-08-06T10:23:01.595Z,24.66
2018-08-06T10:25:28.225Z,24.64
2018-08-06T10:27:55.652Z,24.67
2018-08-06T10:30:22.881Z,24.63
2018-08-06T10:32:49.467Z,24.65
2018-08-06T10:35:16.804Z,24.65
2018-08-06T10:37:43.608Z,24.66
2018-08-06T10:40:14.823Z,24.65
2018-08-06T10:42:42.198Z,24.70
2018-08-06T10:45:10.834Z,24.68
2018-08-06T10:47:38.436Z,24.68
2018-08-06T10:50:06.373Z,24.65
2018-08-06T10:52:33.088Z,24.65
2018-08-06T10:54:59.708Z,24.65
2018-08-06T10:57:26.336Z,24.65
2018-08-06T10:59:52.960Z,24.63
2018-08-06T11:02:19.584Z,24.63
2018-08-06T11:04:46.213Z,24.66
2018-08-06T11:07:13.797Z,24.66
2018-08-06T11:09:40.416Z,24.64
2018-08-06T11:12:07.056Z,24.65
2018-08-06T11:14:34.385Z,24.64
2018-08-06T11:17:02.423Z,24.64
2018-08-06T11:19:29.056Z,24.62
2018-08-06T11:21:56.644Z,24.63
2018-08-06T11:24:23.272Z,24.62
2018-08-06T11:26:49.892Z,24.62
2018-08-06T11:29:16.536Z,24.61
2018-08-06T11:31:43.728Z,24.64
2018-08-06T11:34:11.236Z,24.62
2018-08-06T11:36:38.829Z,24.61
2018-08-06T11:39:07.341Z,24.61
2018-08-06T11:41:35.499Z,24.64
2018-08-06T11:44:03.108Z,24.64
2018-08-06T11:46:29.733Z,24.62
2018-08-06T11:48:56.522Z,24.61
2018-08-06T11:51:23.176Z,24.62
2018-08-06T11:53:49.808Z,24.63
2018-08-06T11:56:16.453Z,24.62
2018-08-06T11:58:43.077Z,24.62
2018-08-06T12:01:09.716Z,24.63
2018-08-06T12:03:37.196Z,24.59
2018-08-06T12:06:04.995Z,24.62
2018-08-06T12:08:31.894Z,24.60
2018-08-06T12:10:58.524Z,24.60
2018-08-06T12:13:25.165Z,24.59
2018-08-06T12:15:51.808Z,24.60
2018-08-06T12:18:18.434Z,24.59
2018-08-06T12:20:45.989Z,24.59
2018-08-06T12:23:12.623Z,24.61
2018-08-06T12:25:39.248Z,24.62
2018-08-06T12:28:05.884Z,24.60
2018-08-06T12:30:32.507Z,24.60
2018-08-06T12:32:59.152Z,24.61
2018-08-06T12:35:25.777Z,24.58
2018-08-06T12:37:52.413Z,24.60
2018-08-06T12:40:20.115Z,24.61
2018-08-06T12:42:46.784Z,24.61
2018-08-06T12:45:14.095Z,24.59
2018-08-06T12:47:40.984Z,24.60
2018-08-06T12:50:08.869Z,24.60
2018-08-06T12:52:35.908Z,24.61
2018-08-06T12:55:02.788Z,24.61
2018-08-06T12:57:30.925Z,24.61
2018-08-06T12:59:57.567Z,24.60
2018-08-06T13:02:24.224Z,24.60
2018-08-06T13:04:50.839Z,24.61
2018-08-06T13:07:18.316Z,24.59
2018-08-06T13:09:45.837Z,24.59
2018-08-06T13:12:13.368Z,24.60
2018-08-06T13:14:40.021Z,24.59
2018-08-06T13:17:07.589Z,24.59
2018-08-06T13:19:35.452Z,24.59
2018-08-06T13:22:02.941Z,24.59
2018-08-06T13:24:31.264Z,24.58
2018-08-06T13:26:58.716Z,24.58
2018-08-06T13:29:26.294Z,24.57
2018-08-06T13:31:53.900Z,24.58
2018-08-06T13:34:20.521Z,24.58
2018-08-06T13:36:47.178Z,24.59
2018-08-06T13:39:13.805Z,24.63
2018-08-06T13:41:40.444Z,24.72
2018-08-06T13:44:07.085Z,24.83
2018-08-06T13:46:35.447Z,24.92
2018-08-06T13:49:02.211Z,24.98
2018-08-06T13:51:29.704Z,25.02
2018-08-06T13:53:56.426Z,25.05
2018-08-06T13:56:23.909Z,25.07
2018-08-06T13:58:50.565Z,25.06
2018-08-06T14:01:17.193Z,25.06
2018-08-06T14:03:44.807Z,25.05
2018-08-06T14:06:12.401Z,25.03
2018-08-06T14:08:40.013Z,25.06
2018-08-06T14:11:07.635Z,25.02
2018-08-06T14:13:35.292Z,25.04
2018-08-06T14:16:02.709Z,25.03
2018-08-06T14:18:31.281Z,25.02
2018-08-06T14:20:57.909Z,25.03
2018-08-06T14:23:25.502Z,25.03
2018-08-06T14:25:53.117Z,25.03
2018-08-06T14:28:20.722Z,25.03
2018-08-06T14:30:48.314Z,25.01
2018-08-06T14:33:15.954Z,25.03
2018-08-06T14:35:42.590Z,25.02
2018-08-06T14:38:10.188Z,25.01
2018-08-06T14:40:37.702Z,25.03
2018-08-06T14:43:05.276Z,25.01
2018-08-06T14:45:31.892Z,25.00
2018-08-06T14:47:58.540Z,25.00
2018-08-06T14:50:25.172Z,24.99
2018-08-06T14:52:52.799Z,25.00
2018-08-06T14:55:20.472Z,25.00
2018-08-06T14:57:47.096Z,25.00
2018-08-06T15:00:18.136Z,25.00
2018-08-06T15:02:44.990Z,24.99
2018-08-06T15:05:11.654Z,24.99
2018-08-06T15:07:38.546Z,24.99
2018-08-06T15:10:07.403Z,24.98
2018-08-06T15:12:35.423Z,24.98
2018-08-06T15:15:02.051Z,24.96
2018-08-06T15:17:28.840Z,24.96
2018-08-06T15:19:55.468Z,24.97
2018-08-06T15:22:22.318Z,24.97
2018-08-06T15:24:48.940Z,24.97
2018-08-06T15:27:15.575Z,24.94
2018-08-06T15:29:42.197Z,24.95
2018-08-06T15:32:08.876Z,24.94
2018-08-06T15:34:35.496Z,24.95
2018-08-06T15:37:02.134Z,24.93
2018-08-06T15:39:28.812Z,24.95
2018-08-06T15:41:55.480Z,24.95
2018-08-06T15:44:22.153Z,24.95
2018-08-06T15:46:48.776Z,24.93
2018-08-06T15:49:15.428Z,24.94
2018-08-06T15:51:42.056Z,24.93
2018-08-06T15:54:08.691Z,24.95
2018-08-06T15:56:36.247Z,24.95
2018-08-06T15:59:04.779Z,24.94
2018-08-06T16:01:32.395Z,24.93
2018-08-06T16:03:59.965Z,24.92
2018-08-06T16:06:26.776Z,24.94
2018-08-06T16:08:53.396Z,24.91
2018-08-06T16:11:20.114Z,24.92
2018-08-06T16:13:47.531Z,24.90
2018-08-06T16:16:14.165Z,24.90
2018-08-06T16:18:40.800Z,24.92
2018-08-06T16:21:07.418Z,24.91
2018-08-06T16:23:35.048Z,24.92
2018-08-06T16:26:05.009Z,24.90
2018-08-06T16:28:33.213Z,24.90
2018-08-06T16:30:59.885Z,24.91
2018-08-06T16:33:26.528Z,24.90
2018-08-06T16:35:53.164Z,24.91
2018-08-06T16:38:19.804Z,24.90
2018-08-06T16:40:47.364Z,24.89
2018-08-06T16:43:14.024Z,24.90
2018-08-06T16:45:41.616Z,24.89
2018-08-06T16:48:08.276Z,24.89
2018-08-06T16:50:35.721Z,24.89
2018-08-06T16:53:03.408Z,24.89
2018-08-06T16:55:30.052Z,24.89
2018-08-06T16:57:56.686Z,24.88
2018-08-06T17:00:23.376Z,24.90
2018-08-06T17:02:50.362Z,24.93
2018-08-06T17:05:17.006Z,24.89
2018-08-06T17:07:45.573Z,24.88
2018-08-06T17:10:14.555Z,24.87
2018-08-06T17:12:42.312Z,24.88
2018-08-06T17:15:10.518Z,24.88
2018-08-06T17:17:37.185Z,24.86
2018-08-06T17:20:05.228Z,24.86
2018-08-06T17:22:32.790Z,24.87
2018-08-06T17:24:59.456Z,24.86
2018-08-06T17:27:26.093Z,24.86
2018-08-06T17:29:52.720Z,24.86
2018-08-06T17:32:19.344Z,24.85
2018-08-06T17:34:46.927Z,24.85
2018-08-06T17:37:14.485Z,24.84
2018-08-06T17:39:41.132Z,24.84
2018-08-06T17:42:07.760Z,24.85
2018-08-06T17:44:35.109Z,24.84
2018-08-06T17:47:02.608Z,24.84
2018-08-06T17:49:29.256Z,24.84
2018-08-06T17:51:55.909Z,24.83
2018-08-06T17:54:22.657Z,24.82
2018-08-06T17:56:49.296Z,24.82
2018-08-06T17:59:15.955Z,24.80
2018-08-06T18:01:42.602Z,24.80
2018-08-06T18:04:09.233Z,24.78
2018-08-06T18:06:36.852Z,24.76
2018-08-06T18:09:05.503Z,24.77
2018-08-06T18:11:32.169Z,24.76
2018-08-06T18:13:58.808Z,24.76
2018-08-06T18:16:26.421Z,24.75
2018-08-06T18:18:54.158Z,24.74
2018-08-06T18:21:21.757Z,24.74
2018-08-06T18:23:48.393Z,24.73
2018-08-06T18:26:15.034Z,24.73
2018-08-06T18:28:41.693Z,24.72
2018-08-06T18:31:08.371Z,24.72
2018-08-06T18:33:35.472Z,24.72
2018-08-06T18:36:02.271Z,24.72
2018-08-06T18:38:28.932Z,24.71
2018-08-06T18:40:55.641Z,24.69
2018-08-06T18:43:22.281Z,24.69
2018-08-06T18:45:48.941Z,24.69
2018-08-06T18:48:15.584Z,24.68
2018-08-06T18:50:42.226Z,24.68
2018-08-06T18:53:08.884Z,24.66
2018-08-06T18:55:35.591Z,24.67
2018-08-06T18:58:02.634Z,24.66
2018-08-06T19:00:29.291Z,24.66
2018-08-06T19:02:56.466Z,24.64
2018-08-06T19:05:24.101Z,24.63
2018-08-06T19:07:51.584Z,24.63
2018-08-06T19:10:19.203Z,24.63
2018-08-06T19:15:25.474Z,24.62
2018-08-06T19:17:57.872Z,24.61
2018-08-06T19:20:24.543Z,24.60
2018-08-06T19:22:51.992Z,24.59
2018-08-06T19:25:24.530Z,24.60
2018-08-06T19:27:51.177Z,24.60
2018-08-06T19:30:17.824Z,24.60
2018-08-06T19:32:45.200Z,24.58
2018-08-06T19:35:12.809Z,24.59
2018-08-06T19:37:45.993Z,24.58
2018-08-06T19:40:13.768Z,24.57
2018-08-06T19:42:47.228Z,24.56
2018-08-06T19:45:14.115Z,24.56
2018-08-06T19:47:42.380Z,24.56
2018-08-06T19:50:15.592Z,24.54
2018-08-06T19:52:43.073Z,24.54
2018-08-06T19:55:16.248Z,24.53
2018-08-06T19:57:43.840Z,24.53
2018-08-06T20:00:11.945Z,24.52
2018-08-06T20:02:38.644Z,24.53
2018-08-06T20:05:05.592Z,24.52
2018-08-06T20:07:33.134Z,24.51
2018-08-06T20:10:00.778Z,24.51
2018-08-06T20:12:28.569Z,24.51
2018-08-06T20:14:55.273Z,24.50
2018-08-06T20:17:22.889Z,24.50
2018-08-06T20:19:49.538Z,24.49
2018-08-06T20:22:16.999Z,24.48
2018-08-06T20:24:43.901Z,24.49
2018-08-06T20:27:11.353Z,24.48
2018-08-06T20:29:38.001Z,24.48
2018-08-06T20:32:05.628Z,24.49
2018-08-06T20:34:32.279Z,24.48
2018-08-06T20:36:58.919Z,24.50
2018-08-06T20:39:25.573Z,24.59
2018-08-06T20:41:53.172Z,24.67
2018-08-06T20:44:19.813Z,24.73
2018-08-06T20:46:47.389Z,24.82
2018-08-06T20:49:15.060Z,24.88
2018-08-06T20:51:41.701Z,24.91
2018-08-06T20:54:08.340Z,24.92
2018-08-06T20:56:35.967Z,24.94
2018-08-06T20:59:04.152Z,24.94
2018-08-06T21:01:31.845Z,24.94
2018-08-06T21:03:58.489Z,24.93
2018-08-06T21:06:25.130Z,24.94
2018-08-06T21:08:51.779Z,24.92
2018-08-06T21:11:19.334Z,24.91
2018-08-06T21:13:45.991Z,24.90
2018-08-06T21:16:12.684Z,24.89
2018-08-06T21:18:39.344Z,24.89
2018-08-06T21:21:05.983Z,24.86
2018-08-06T21:23:32.689Z,24.87
2018-08-06T21:25:59.344Z,24.87
2018-08-06T21:28:25.997Z,24.86
2018-08-06T21:30:52.635Z,24.85
2018-08-06T21:33:19.344Z,24.83
2018-08-06T21:35:46.011Z,24.84
2018-08-06T21:38:12.677Z,24.83
2018-08-06T21:40:39.333Z,24.80
2018-08-06T21:43:06.036Z,24.78
2018-08-06T21:45:32.733Z,24.79
2018-08-06T21:47:59.391Z,24.78
2018-08-06T21:50:26.060Z,24.76
2018-08-06T21:52:52.725Z,24.78
2018-08-06T21:55:19.496Z,24.76
2018-08-06T21:57:46.169Z,24.74
2018-08-06T22:00:19.068Z,24.76
2018-08-06T22:02:45.705Z,24.74
2018-08-06T22:05:12.365Z,24.75
2018-08-06T22:07:39.829Z,24.75
2018-08-06T22:10:07.484Z,24.75
2018-08-06T22:12:36.461Z,24.74
2018-08-06T22:15:04.504Z,24.72
2018-08-06T22:17:32.156Z,24.71
2018-08-06T22:19:59.730Z,24.72
2018-08-06T22:22:26.401Z,24.70
2018-08-06T22:24:53.069Z,24.70
2018-08-06T22:27:19.733Z,24.72
2018-08-06T22:29:46.433Z,24.70
2018-08-06T22:32:13.933Z,24.70
2018-08-06T22:34:40.636Z,24.70
2018-08-06T22:37:07.406Z,24.70
2018-08-06T22:39:35.605Z,24.67
2018-08-06T22:42:02.299Z,24.68
2018-08-06T22:44:28.957Z,24.67
2018-08-06T22:46:55.600Z,24.66
2018-08-06T22:49:22.293Z,24.66
2018-08-06T22:51:48.956Z,24.68
2018-08-06T22:54:16.548Z,24.67
2018-08-06T22:56:44.048Z,24.62
2018-08-06T22:59:11.670Z,24.64
2018-08-06T23:01:39.269Z,24.64
2018-08-06T23:04:06.880Z,24.66
2018-08-06T23:06:34.555Z,24.65
2018-08-06T23:09:02.138Z,24.63
2018-08-06T23:11:28.758Z,24.63
2018-08-06T23:13:56.324Z,24.62
2018-08-06T23:16:23.964Z,24.62
2018-08-06T23:18:50.609Z,24.62
2018-08-06T23:21:18.207Z,24.61
2018-08-06T23:23:45.761Z,24.61
2018-08-06T23:26:13.292Z,24.65
2018-08-06T23:28:39.937Z,24.62
2018-08-06T23:31:07.540Z,24.63
2018-08-06T23:33:35.502Z,24.62
2018-08-06T23:36:02.497Z,24.61
2018-08-06T23:38:29.138Z,24.60
2018-08-06T23:40:55.925Z,24.60
2018-08-06T23:43:22.559Z,24.56
2018-08-06T23:45:49.188Z,24.61
2018-08-06T23:48:15.822Z,24.55
2018-08-06T23:50:43.208Z,24.59
2018-08-06T23:53:09.894Z,24.57
2018-08-06T23:55:36.516Z,24.58
2018-08-06T23:58:03.160Z,24.56
